Time;durP1;ratioP1;P1;durP2;ratioP2;P2;SDS_P1;SDS_P2;PMS_P1;PMS_P2;Temp;Humidity;BMP_temperature;BMP_pressure;BME280_temperature;BME280_humidity;BME280_pressure;Samples;Min_cycle;Max_cycle;Signal;HPM_P1;HPM_P2
2024/01/13 00:00:46;;;;;;;87.53;40.60;;;;;;;;;;5072920;28;20590;-62
2024/01/13 00:03:12;;;;;;;82.37;39.97;;;;;;;;;;5072974;28;20269;-61
2024/01/13 00:05:38;;;;;;;79.07;39.67;;;;;;;;;;5073013;28;20186;-62
2024/01/13 00:08:04;;;;;;;87.97;40.43;;;;;;;;;;5073315;28;20178;-62
2024/01/13 00:10:30;;;;;;;87.40;41.23;;;;;;;;;;5054726;28;20186;-62
2024/01/13 00:12:56;;;;;;;82.70;40.33;;;;;;;;;;5072986;28;20246;-62
2024/01/13 00:15:22;;;;;;;80.90;39.33;;;;;;;;;;5072623;28;20663;-62
2024/01/13 00:17:48;;;;;;;82.17;40.47;;;;;;;;;;5072776;28;20412;-62
2024/01/13 00:20:14;;;;;;;79.10;40.57;;;;;;;;;;5054500;28;20178;-62
2024/01/13 00:22:47;;;;;;;82.83;40.73;;;;;;;;;;5072407;28;20197;-62
2024/01/13 00:25:13;;;;;;;82.07;40.60;;;;;;;;;;5072540;28;20634;-62
2024/01/13 00:27:39;;;;;;;83.80;41.53;;;;;;;;;;5072347;28;20546;-62
2024/01/13 00:30:05;;;;;;;79.53;40.43;;;;;;;;;;5054484;28;20188;-62
2024/01/13 00:32:31;;;;;;;80.13;39.07;;;;;;;;;;5054280;28;20208;-62
2024/01/13 00:34:57;;;;;;;80.90;39.47;;;;;;;;;;5054370;28;20460;-62
2024/01/13 00:37:23;;;;;;;75.97;38.63;;;;;;;;;;5072310;28;20523;-62
2024/01/13 00:39:49;;;;;;;77.97;38.80;;;;;;;;;;5072624;28;20529;-62
2024/01/13 00:42:15;;;;;;;88.27;40.53;;;;;;;;;;5072352;28;20684;-62
2024/01/13 00:44:41;;;;;;;86.17;40.67;;;;;;;;;;5054250;28;20648;-62
2024/01/13 00:47:07;;;;;;;80.93;38.53;;;;;;;;;;5072610;28;20612;-62
2024/01/13 00:49:33;;;;;;;75.00;37.83;;;;;;;;;;5073112;28;20212;-66
2024/01/13 00:51:58;;;;;;;68.97;36.23;;;;;;;;;;5072176;28;20251;-66
2024/01/13 00:54:24;;;;;;;78.63;36.37;;;;;;;;;;5072315;28;20193;-66
2024/01/13 00:56:52;;;;;;;64.13;34.40;;;;;;;;;;5072522;28;20177;-66
2024/01/13 00:59:18;;;;;;;72.63;35.40;;;;;;;;;;5072200;28;20170;-66
2024/01/13 01:01:44;;;;;;;76.47;36.53;;;;;;;;;;5072056;28;20910;-66
2024/01/13 01:04:10;;;;;;;82.53;39.07;;;;;;;;;;5073207;28;20632;-66
2024/01/13 01:06:36;;;;;;;72.23;36.90;;;;;;;;;;5072194;28;20177;-67
2024/01/13 01:09:02;;;;;;;70.70;34.93;;;;;;;;;;5054480;28;20197;-66
2024/01/13 01:11:28;;;;;;;71.60;37.50;;;;;;;;;;5072171;28;20231;-66
2024/01/13 01:13:55;;;;;;;78.67;34.20;;;;;;;;;;5054116;28;20267;-66
2024/01/13 01:16:21;;;;;;;63.70;34.37;;;;;;;;;;5072354;28;20746;-65
2024/01/13 01:18:47;;;;;;;75.53;35.63;;;;;;;;;;5071983;28;20208;-66
2024/01/13 01:21:13;;;;;;;70.33;36.20;;;;;;;;;;5053829;28;20174;-66
2024/01/13 01:23:39;;;;;;;72.87;35.70;;;;;;;;;;5071970;28;20173;-66
2024/01/13 01:26:05;;;;;;;73.33;34.40;;;;;;;;;;5072180;28;20411;-66
2024/01/13 01:28:31;;;;;;;72.37;33.93;;;;;;;;;;5071969;28;20186;-67
2024/01/13 01:30:57;;;;;;;68.57;34.50;;;;;;;;;;5072060;28;20288;-65
2024/01/13 01:33:23;;;;;;;67.77;33.77;;;;;;;;;;5072057;28;20201;-66
2024/01/13 01:35:49;;;;;;;70.30;34.43;;;;;;;;;;5073196;28;20209;-66
2024/01/13 01:38:15;;;;;;;74.47;36.03;;;;;;;;;;5076017;28;20653;-66
2024/01/13 01:40:42;;;;;;;77.13;35.97;;;;;;;;;;5076294;28;20621;-66
2024/01/13 01:43:08;;;;;;;73.77;37.53;;;;;;;;;;5075728;28;20220;-66
2024/01/13 01:45:34;;;;;;;68.60;36.23;;;;;;;;;;5075631;28;20499;-66
2024/01/13 01:48:02;;;;;;;68.27;34.53;;;;;;;;;;5075915;28;20201;-66
2024/01/13 01:50:28;;;;;;;70.60;35.30;;;;;;;;;;5057670;28;20481;-66
2024/01/13 01:52:54;;;;;;;66.97;35.50;;;;;;;;;;5075765;28;20285;-66
2024/01/13 01:55:20;;;;;;;69.70;35.47;;;;;;;;;;5075895;28;20317;-66
2024/01/13 01:57:46;;;;;;;62.43;33.57;;;;;;;;;;5083782;28;20170;-65
2024/01/13 02:00:12;;;;;;;62.37;34.37;;;;;;;;;;5090220;28;20652;-66
2024/01/13 02:02:38;;;;;;;62.20;33.90;;;;;;;;;;5090593;28;20197;-65
2024/01/13 02:05:04;;;;;;;67.87;34.50;;;;;;;;;;5090349;28;20174;-66
2024/01/13 02:07:31;;;;;;;60.97;33.10;;;;;;;;;;5079356;28;20252;-66
2024/01/13 02:09:57;;;;;;;67.03;34.53;;;;;;;;;;5059078;28;20682;-65
2024/01/13 02:12:23;;;;;;;70.80;33.80;;;;;;;;;;5076612;28;20194;-66
2024/01/13 02:14:50;;;;;;;61.83;33.23;;;;;;;;;;5075993;28;20197;-66
2024/01/13 02:17:16;;;;;;;73.03;36.33;;;;;;;;;;5076231;28;20219;-66
2024/01/13 02:19:42;;;;;;;69.27;34.27;;;;;;;;;;5075663;28;20174;-66
2024/01/13 02:22:08;;;;;;;57.87;32.90;;;;;;;;;;5075402;28;20189;-66
2024/01/13 02:24:34;;;;;;;64.23;35.50;;;;;;;;;;5075375;28;20177;-72
2024/01/13 02:27:00;;;;;;;68.53;35.70;;;;;;;;;;5075115;28;20193;-66
2024/01/13 02:29:26;;;;;;;66.43;36.63;;;;;;;;;;5075225;28;20273;-66
2024/01/13 02:31:52;;;;;;;64.70;34.33;;;;;;;;;;5057426;28;20244;-65
2024/01/13 02:34:18;;;;;;;62.10;34.10;;;;;;;;;;5074747;28;20213;-66
2024/01/13 02:36:44;;;;;;;60.50;33.83;;;;;;;;;;5056979;28;20201;-66
2024/01/13 02:39:10;;;;;;;68.57;35.03;;;;;;;;;;5075964;28;20199;-66
2024/01/13 02:41:36;;;;;;;64.20;34.17;;;;;;;;;;5074878;28;20264;-66
2024/01/13 02:44:02;;;;;;;66.60;34.83;;;;;;;;;;5075039;28;20162;-66
2024/01/13 02:46:27;;;;;;;67.63;36.37;;;;;;;;;;5074628;28;20553;-66
2024/01/13 02:48:54;;;;;;;65.27;33.80;;;;;;;;;;5074601;28;20594;-66
2024/01/13 02:51:20;;;;;;;58.80;36.63;;;;;;;;;;5074755;28;20174;-65
2024/01/13 02:53:46;;;;;;;75.53;35.30;;;;;;;;;;5086345;28;20415;-66
2024/01/13 02:56:12;;;;;;;69.87;36.53;;;;;;;;;;5085536;28;20527;-65
2024/01/13 02:58:38;;;;;;;69.70;35.90;;;;;;;;;;5085223;28;20416;-65
2024/01/13 03:01:06;;;;;;;70.63;37.37;;;;;;;;;;5085062;28;20185;-65
2024/01/13 03:03:34;;;;;;;73.17;37.40;;;;;;;;;;5085419;28;20411;-66
2024/01/13 03:06:00;;;;;;;78.80;39.27;;;;;;;;;;5082057;28;20546;-65
2024/01/13 03:08:26;;;;;;;75.10;36.07;;;;;;;;;;5075966;28;20177;-66
2024/01/13 03:10:52;;;;;;;72.70;37.23;;;;;;;;;;5074522;28;20408;-66
2024/01/13 03:13:18;;;;;;;70.93;36.33;;;;;;;;;;5074286;28;20205;-66
2024/01/13 03:15:44;;;;;;;61.07;35.33;;;;;;;;;;5074226;28;20276;-66
2024/01/13 03:18:10;;;;;;;63.87;35.10;;;;;;;;;;5074323;28;20182;-66
2024/01/13 03:20:36;;;;;;;62.93;33.73;;;;;;;;;;5074011;28;20177;-66
2024/01/13 03:23:02;;;;;;;65.33;34.87;;;;;;;;;;5055777;28;20202;-66
2024/01/13 03:25:28;;;;;;;64.73;36.17;;;;;;;;;;5073812;28;20270;-66
2024/01/13 03:27:54;;;;;;;60.97;34.90;;;;;;;;;;5073602;28;20177;-66
2024/01/13 03:30:20;;;;;;;67.20;36.43;;;;;;;;;;5073880;28;20178;-66
2024/01/13 03:32:46;;;;;;;61.63;33.03;;;;;;;;;;5055573;28;20289;-66
2024/01/13 03:35:12;;;;;;;63.23;34.53;;;;;;;;;;5073563;28;20236;-66
2024/01/13 03:37:38;;;;;;;68.47;35.43;;;;;;;;;;5073580;28;20182;-66
2024/01/13 03:40:04;;;;;;;55.80;33.13;;;;;;;;;;5055717;28;20269;-66
2024/01/13 03:42:30;;;;;;;61.70;34.63;;;;;;;;;;5073192;28;20890;-66
2024/01/13 03:44:56;;;;;;;62.13;34.83;;;;;;;;;;5073743;28;20205;-66
2024/01/13 03:47:22;;;;;;;63.33;34.57;;;;;;;;;;5073987;28;20412;-66
2024/01/13 03:49:49;;;;;;;66.43;34.70;;;;;;;;;;5073378;28;20190;-66
2024/01/13 03:52:15;;;;;;;60.07;33.90;;;;;;;;;;5073281;28;20634;-66
2024/01/13 03:54:41;;;;;;;60.73;32.63;;;;;;;;;;5073299;28;20557;-66
2024/01/13 03:57:07;;;;;;;59.80;33.77;;;;;;;;;;5073402;28;20408;-66
2024/01/13 03:59:33;;;;;;;59.47;34.87;;;;;;;;;;5073022;28;20339;-66
2024/01/13 04:01:59;;;;;;;63.07;34.70;;;;;;;;;;5072915;28;20255;-66
2024/01/13 04:04:25;;;;;;;62.93;34.40;;;;;;;;;;5055029;28;20297;-66
2024/01/13 04:06:51;;;;;;;62.43;35.40;;;;;;;;;;5073210;28;20223;-66
2024/01/13 04:09:17;;;;;;;63.20;35.47;;;;;;;;;;5073075;28;20219;-66
2024/01/13 04:11:43;;;;;;;57.17;33.23;;;;;;;;;;5054929;28;20206;-66
2024/01/13 04:14:09;;;;;;;58.93;33.63;;;;;;;;;;5054854;28;20671;-67
2024/01/13 04:16:35;;;;;;;60.73;32.40;;;;;;;;;;5055529;28;20651;-66
2024/01/13 04:19:01;;;;;;;56.80;32.37;;;;;;;;;;5072803;28;20170;-66
2024/01/13 04:21:27;;;;;;;57.97;32.23;;;;;;;;;;5072682;28;20185;-66
2024/01/13 04:23:53;;;;;;;60.10;31.27;;;;;;;;;;5073587;28;20491;-66
2024/01/13 04:26:22;;;;;;;59.63;30.73;;;;;;;;;;5072870;28;20177;-66
2024/01/13 04:28:48;;;;;;;52.57;30.23;;;;;;;;;;5072586;28;20178;-66
2024/01/13 04:31:14;;;;;;;58.23;31.13;;;;;;;;;;5054535;28;20446;-66
2024/01/13 04:33:40;;;;;;;62.20;32.70;;;;;;;;;;5073477;28;20179;-66
2024/01/13 04:36:06;;;;;;;55.50;31.80;;;;;;;;;;5054423;28;20213;-66
2024/01/13 04:38:32;;;;;;;56.47;30.90;;;;;;;;;;5072530;28;20170;-66
2024/01/13 04:40:58;;;;;;;56.33;30.47;;;;;;;;;;5073006;28;20409;-66
2024/01/13 04:43:24;;;;;;;56.57;29.03;;;;;;;;;;5054274;28;20252;-66
2024/01/13 04:45:50;;;;;;;49.10;30.00;;;;;;;;;;5072636;28;20247;-66
2024/01/13 04:48:17;;;;;;;53.10;30.63;;;;;;;;;;5072353;28;20640;-66
2024/01/13 04:50:43;;;;;;;49.90;29.07;;;;;;;;;;5054483;28;20423;-66
2024/01/13 04:53:09;;;;;;;58.50;29.63;;;;;;;;;;5072480;28;20290;-66
2024/01/13 04:55:35;;;;;;;49.43;28.60;;;;;;;;;;5072047;28;20711;-66
2024/01/13 04:58:01;;;;;;;50.00;29.03;;;;;;;;;;5072372;28;20666;-66
2024/01/13 05:00:28;;;;;;;49.00;28.43;;;;;;;;;;5072273;28;20192;-66
2024/01/13 05:02:54;;;;;;;55.37;28.47;;;;;;;;;;5072148;28;20197;-66
2024/01/13 05:05:20;;;;;;;47.63;28.33;;;;;;;;;;5072455;28;20205;-69
2024/01/13 05:07:46;;;;;;;50.53;28.40;;;;;;;;;;5072440;28;20264;-66
2024/01/13 05:10:12;;;;;;;53.30;30.47;;;;;;;;;;5073885;28;20189;-67
2024/01/13 05:12:37;;;;;;;50.50;29.23;;;;;;;;;;5076165;28;20646;-66
2024/01/13 05:15:04;;;;;;;54.83;28.97;;;;;;;;;;5076427;28;20242;-66
2024/01/13 05:17:30;;;;;;;44.53;28.47;;;;;;;;;;5058063;28;20182;-66
2024/01/13 05:19:56;;;;;;;45.77;27.47;;;;;;;;;;5076587;28;20177;-66
2024/01/13 05:22:21;;;;;;;49.90;27.60;;;;;;;;;;5058020;28;20208;-66
2024/01/13 05:24:47;;;;;;;49.30;28.27;;;;;;;;;;5076093;28;20327;-66
2024/01/13 05:27:14;;;;;;;57.10;28.40;;;;;;;;;;5057832;28;20182;-66
2024/01/13 05:29:40;;;;;;;44.57;27.87;;;;;;;;;;5076244;28;20232;-66
2024/01/13 05:32:07;;;;;;;49.33;28.70;;;;;;;;;;5076090;28;20201;-66
2024/01/13 05:34:33;;;;;;;50.80;29.97;;;;;;;;;;5075873;28;20258;-67
2024/01/13 05:36:59;;;;;;;51.80;27.80;;;;;;;;;;5076244;28;20178;-66
2024/01/13 05:39:25;;;;;;;47.90;27.67;;;;;;;;;;5075730;28;20205;-66
2024/01/13 05:41:51;;;;;;;46.43;28.47;;;;;;;;;;5075538;28;20238;-66
2024/01/13 05:44:17;;;;;;;49.50;28.60;;;;;;;;;;5076031;28;20185;-65
2024/01/13 05:46:43;;;;;;;41.17;26.63;;;;;;;;;;5076168;28;20174;-66
2024/01/13 05:49:09;;;;;;;51.03;27.40;;;;;;;;;;5057842;28;20246;-66
2024/01/13 05:51:36;;;;;;;42.53;27.67;;;;;;;;;;5057800;28;20236;-66
2024/01/13 05:54:02;;;;;;;43.87;26.80;;;;;;;;;;5057767;28;20624;-65
2024/01/13 05:56:30;;;;;;;44.47;27.00;;;;;;;;;;5075613;28;20563;-64
2024/01/13 05:58:56;;;;;;;48.87;27.90;;;;;;;;;;5076081;28;20174;-66
2024/01/13 06:01:24;;;;;;;44.73;26.87;;;;;;;;;;5075993;28;20202;-66
2024/01/13 06:03:50;;;;;;;43.00;26.63;;;;;;;;;;5075390;28;20643;-66
2024/01/13 06:06:17;;;;;;;40.70;28.17;;;;;;;;;;5075288;28;20181;-66
2024/01/13 06:08:43;;;;;;;42.50;25.97;;;;;;;;;;5075735;28;20178;-66
2024/01/13 06:11:09;;;;;;;39.47;25.20;;;;;;;;;;5075230;28;20181;-66
2024/01/13 06:13:35;;;;;;;41.43;26.40;;;;;;;;;;5075008;28;20196;-66
2024/01/13 06:16:01;;;;;;;38.07;26.50;;;;;;;;;;5075140;28;20198;-66
2024/01/13 06:18:27;;;;;;;41.10;26.10;;;;;;;;;;5075240;28;20170;-66
2024/01/13 06:20:53;;;;;;;41.07;24.23;;;;;;;;;;5074811;28;20261;-66
2024/01/13 06:23:19;;;;;;;42.57;24.80;;;;;;;;;;5056305;28;20194;-66
2024/01/13 06:25:45;;;;;;;33.80;22.93;;;;;;;;;;5075765;28;20303;-66
2024/01/13 06:28:11;;;;;;;38.87;23.60;;;;;;;;;;5075144;28;20264;-66
2024/01/13 06:30:37;;;;;;;35.40;24.53;;;;;;;;;;5079306;28;20209;-67
2024/01/13 06:33:03;;;;;;;36.67;23.10;;;;;;;;;;5067470;28;20201;-66
2024/01/13 06:35:29;;;;;;;34.57;22.93;;;;;;;;;;5087697;28;20206;-66
2024/01/13 06:37:55;;;;;;;35.23;22.37;;;;;;;;;;5086157;28;20174;-66
2024/01/13 06:40:21;;;;;;;35.37;24.30;;;;;;;;;;5063035;28;20225;-66
2024/01/13 06:42:47;;;;;;;41.80;23.47;;;;;;;;;;5076289;28;20293;-66
2024/01/13 06:45:13;;;;;;;28.60;21.30;;;;;;;;;;5075285;28;20267;-66
2024/01/13 06:47:39;;;;;;;29.53;21.63;;;;;;;;;;5075489;28;20186;-66
2024/01/13 06:50:05;;;;;;;31.93;22.63;;;;;;;;;;5075545;28;20177;-67
2024/01/13 06:52:31;;;;;;;26.23;19.60;;;;;;;;;;5074754;28;20202;-66
2024/01/13 06:54:57;;;;;;;32.07;20.67;;;;;;;;;;5074498;28;20876;-66
2024/01/13 06:57:23;;;;;;;29.93;20.30;;;;;;;;;;5074377;28;20594;-66
2024/01/13 06:59:48;;;;;;;25.03;18.90;;;;;;;;;;5074502;28;20177;-66
2024/01/13 07:02:14;;;;;;;24.10;19.27;;;;;;;;;;5074282;28;20213;-66
2024/01/13 07:04:41;;;;;;;25.17;17.77;;;;;;;;;;5074362;28;20242;-66
2024/01/13 07:07:08;;;;;;;23.97;18.30;;;;;;;;;;5074089;28;20273;-66
2024/01/13 07:09:34;;;;;;;24.80;17.90;;;;;;;;;;5056314;28;20555;-66
2024/01/13 07:12:00;;;;;;;25.10;17.90;;;;;;;;;;5073918;28;20202;-66
2024/01/13 07:14:26;;;;;;;24.67;17.60;;;;;;;;;;5074340;28;20189;-66
2024/01/13 07:16:52;;;;;;;23.97;18.60;;;;;;;;;;5073897;28;20721;-66
2024/01/13 07:19:18;;;;;;;25.60;18.27;;;;;;;;;;5055801;28;20184;-66
2024/01/13 07:21:45;;;;;;;22.10;17.63;;;;;;;;;;5074182;28;20277;-66
2024/01/13 07:24:11;;;;;;;25.37;15.73;;;;;;;;;;5073960;28;20169;-66
2024/01/13 07:26:40;;;;;;;26.97;17.97;;;;;;;;;;5073888;28;20201;-67
2024/01/13 07:29:06;;;;;;;29.37;19.50;;;;;;;;;;5074476;28;20201;-66
2024/01/13 07:31:32;;;;;;;24.13;16.63;;;;;;;;;;5055805;28;20225;-66
2024/01/13 07:33:58;;;;;;;22.43;16.40;;;;;;;;;;5055930;28;20209;-66
2024/01/13 07:36:24;;;;;;;26.83;17.80;;;;;;;;;;5073865;28;20201;-66
2024/01/13 07:38:50;;;;;;;31.57;17.70;;;;;;;;;;5073886;28;20201;-62
2024/01/13 07:41:16;;;;;;;24.90;16.80;;;;;;;;;;5073396;28;20182;-62
2024/01/13 07:43:44;;;;;;;28.50;17.77;;;;;;;;;;5073546;28;20926;-63
2024/01/13 07:46:12;;;;;;;29.80;19.70;;;;;;;;;;5073551;28;20213;-63
2024/01/13 07:48:38;;;;;;;30.60;17.17;;;;;;;;;;5073489;28;20185;-63
2024/01/13 07:51:05;;;;;;;27.20;18.73;;;;;;;;;;5073361;28;20898;-64
2024/01/13 07:53:31;;;;;;;30.60;21.47;;;;;;;;;;5073809;28;20258;-62
2024/01/13 07:55:57;;;;;;;31.97;22.00;;;;;;;;;;5073046;28;20214;-63
2024/01/13 07:58:23;;;;;;;31.67;21.77;;;;;;;;;;5055184;28;20178;-63
2024/01/13 08:00:49;;;;;;;33.20;23.47;;;;;;;;;;5073103;28;20170;-62
2024/01/13 08:03:15;;;;;;;36.37;25.60;;;;;;;;;;5073310;28;20280;-63
2024/01/13 08:05:41;;;;;;;38.00;25.50;;;;;;;;;;5073322;28;20173;-62
2024/01/13 08:08:07;;;;;;;37.03;25.93;;;;;;;;;;5072880;28;20178;-62
2024/01/13 08:10:36;;;;;;;44.10;29.03;;;;;;;;;;5073752;28;20542;-64
2024/01/13 08:13:02;;;;;;;43.07;28.10;;;;;;;;;;5072896;28;20193;-64
2024/01/13 08:15:28;;;;;;;47.33;28.93;;;;;;;;;;5073038;28;20456;-64
2024/01/13 08:17:54;;;;;;;46.70;28.80;;;;;;;;;;5054923;28;20423;-64
2024/01/13 08:20:21;;;;;;;47.47;29.30;;;;;;;;;;5072745;28;20177;-64
2024/01/13 08:22:47;;;;;;;46.00;30.00;;;;;;;;;;5072998;28;20232;-64
2024/01/13 08:25:13;;;;;;;44.00;29.10;;;;;;;;;;5054616;28;20404;-64
2024/01/13 08:27:39;;;;;;;48.00;32.80;;;;;;;;;;5054503;28;20186;-64
2024/01/13 08:30:06;;;;;;;45.53;30.10;;;;;;;;;;5072430;28;20246;-64
2024/01/13 08:32:32;;;;;;;48.80;31.03;;;;;;;;;;5072348;28;20221;-64
2024/01/13 08:34:58;;;;;;;51.53;31.63;;;;;;;;;;5072828;28;20210;-64
2024/01/13 08:37:24;;;;;;;46.70;29.70;;;;;;;;;;5072322;28;20227;-64
2024/01/13 08:39:50;;;;;;;45.33;30.67;;;;;;;;;;5072850;28;20408;-66
2024/01/13 08:42:16;;;;;;;49.73;31.23;;;;;;;;;;5054175;28;20403;-66
2024/01/13 08:44:42;;;;;;;49.57;30.93;;;;;;;;;;5072012;28;20181;-66
2024/01/13 08:47:09;;;;;;;53.33;31.83;;;;;;;;;;5072354;28;20197;-65
2024/01/13 08:49:35;;;;;;;41.77;29.30;;;;;;;;;;5072504;28;20212;-69
2024/01/13 08:52:01;;;;;;;46.70;29.63;;;;;;;;;;5072280;28;20460;-66
2024/01/13 08:54:27;;;;;;;46.20;29.13;;;;;;;;;;5072013;28;20213;-66
2024/01/13 08:56:53;;;;;;;43.50;30.60;;;;;;;;;;5072131;28;20197;-66
2024/01/13 08:59:19;;;;;;;46.07;31.47;;;;;;;;;;5072400;28;20632;-67
2024/01/13 09:01:45;;;;;;;43.13;30.10;;;;;;;;;;5072152;28;20197;-66
2024/01/13 09:04:11;;;;;;;45.37;30.17;;;;;;;;;;5054179;28;20185;-66
2024/01/13 09:06:37;;;;;;;44.73;28.17;;;;;;;;;;5072211;28;20180;-65
2024/01/13 09:09:07;;;;;;;43.90;29.30;;;;;;;;;;5072092;28;20898;-66
2024/01/13 09:11:33;;;;;;;43.37;28.50;;;;;;;;;;5072459;28;20200;-66
2024/01/13 09:13:59;;;;;;;43.57;28.30;;;;;;;;;;5072063;28;20208;-66
2024/01/13 09:16:25;;;;;;;43.30;27.40;;;;;;;;;;5054352;28;20288;-66
2024/01/13 09:18:51;;;;;;;39.70;25.67;;;;;;;;;;5072038;28;20169;-66
2024/01/13 09:21:17;;;;;;;41.33;27.97;;;;;;;;;;5053644;28;20423;-66
2024/01/13 09:23:43;;;;;;;41.67;24.97;;;;;;;;;;5072194;28;20174;-66
2024/01/13 09:26:09;;;;;;;39.93;25.53;;;;;;;;;;5072056;28;20422;-66
2024/01/13 09:28:35;;;;;;;36.43;25.20;;;;;;;;;;5071781;28;20894;-66
2024/01/13 09:31:02;;;;;;;38.37;25.70;;;;;;;;;;5071809;28;20173;-65
2024/01/13 09:33:28;;;;;;;35.83;25.13;;;;;;;;;;5071795;28;20755;-66
2024/01/13 09:35:54;;;;;;;38.40;24.77;;;;;;;;;;5072040;28;20455;-66
2024/01/13 09:38:20;;;;;;;34.60;25.20;;;;;;;;;;5071804;28;20251;-66
2024/01/13 09:40:46;;;;;;;36.73;25.53;;;;;;;;;;5071778;28;20181;-66
2024/01/13 09:43:21;;;;;;;36.33;24.63;;;;;;;;;;5071623;28;20968;-66
2024/01/13 09:45:51;;;;;;;38.73;25.87;;;;;;;;;;5072077;28;20178;-66
2024/01/13 09:48:19;;;;;;;34.93;24.70;;;;;;;;;;5072196;28;20189;-66
2024/01/13 09:50:51;;;;;;;37.20;25.17;;;;;;;;;;5053719;28;20189;-66
2024/01/13 09:53:23;;;;;;;34.50;23.73;;;;;;;;;;5071559;28;20518;-66
2024/01/13 09:55:52;;;;;;;35.07;24.77;;;;;;;;;;5053677;28;20238;-66
2024/01/13 09:58:18;;;;;;;39.80;25.40;;;;;;;;;;5074676;28;20663;-65
2024/01/13 10:00:45;;;;;;;33.93;22.87;;;;;;;;;;5057388;28;20412;-65
2024/01/13 10:03:11;;;;;;;35.40;23.13;;;;;;;;;;5075201;28;20194;-66
2024/01/13 10:05:36;;;;;;;36.57;22.93;;;;;;;;;;5075469;28;20201;-66
2024/01/13 10:08:03;;;;;;;41.07;22.87;;;;;;;;;;5075510;28;20584;-67
2024/01/13 10:10:29;;;;;;;35.17;23.03;;;;;;;;;;5075104;28;20174;-66
2024/01/13 10:12:55;;;;;;;31.60;21.47;;;;;;;;;;5057206;28;20206;-66
2024/01/13 10:15:21;;;;;;;32.07;23.13;;;;;;;;;;5074984;28;20281;-66
2024/01/13 10:17:47;;;;;;;30.00;20.43;;;;;;;;;;5075100;28;20208;-67
2024/01/13 10:20:13;;;;;;;29.20;20.10;;;;;;;;;;5075046;28;20173;-66
2024/01/13 10:22:40;;;;;;;34.43;23.63;;;;;;;;;;5074774;28;20197;-67
2024/01/13 10:25:07;;;;;;;32.13;21.90;;;;;;;;;;5056999;28;20186;-67
2024/01/13 10:27:33;;;;;;;32.67;23.27;;;;;;;;;;5074968;28;20416;-67
2024/01/13 10:29:59;;;;;;;32.73;21.73;;;;;;;;;;5075447;28;20628;-67
2024/01/13 10:32:25;;;;;;;30.40;22.30;;;;;;;;;;5074836;28;20200;-67
2024/01/13 10:34:53;;;;;;;42.00;27.43;;;;;;;;;;5074731;28;20201;-67
2024/01/13 10:37:19;;;;;;;48.33;31.23;;;;;;;;;;5057150;28;20416;-67
2024/01/13 10:39:45;;;;;;;30.73;20.73;;;;;;;;;;5074696;28;20174;-66
2024/01/13 10:42:13;;;;;;;29.70;21.47;;;;;;;;;;5074738;28;21036;-66
2024/01/13 10:44:43;;;;;;;29.50;19.80;;;;;;;;;;5074805;28;20177;-64
2024/01/13 10:47:17;;;;;;;30.40;20.40;;;;;;;;;;5074444;28;20617;-67
2024/01/13 10:49:43;;;;;;;31.07;20.03;;;;;;;;;;5074874;28;20537;-66
2024/01/13 10:52:12;;;;;;;32.20;21.00;;;;;;;;;;5074421;28;20750;-67
2024/01/13 10:54:39;;;;;;;29.43;20.03;;;;;;;;;;5057553;28;20463;-67
2024/01/13 10:57:06;;;;;;;27.23;18.80;;;;;;;;;;5074484;28;20205;-67
2024/01/13 10:59:34;;;;;;;31.80;20.37;;;;;;;;;;5056426;28;20676;-66
2024/01/13 11:02:00;;;;;;;31.97;22.33;;;;;;;;;;5074818;28;20281;-66
2024/01/13 11:04:27;;;;;;;33.10;22.23;;;;;;;;;;5074702;28;20230;-67
2024/01/13 11:06:54;;;;;;;28.77;19.80;;;;;;;;;;5074467;28;20170;-66
2024/01/13 11:09:21;;;;;;;32.27;21.97;;;;;;;;;;5073808;28;20400;-66
2024/01/13 11:11:53;;;;;;;33.97;24.07;;;;;;;;;;5074113;28;20201;-67
2024/01/13 11:14:26;;;;;;;28.50;19.20;;;;;;;;;;5074722;28;20480;-66
2024/01/13 11:16:52;;;;;;;33.23;22.00;;;;;;;;;;5074222;28;20174;-67
2024/01/13 11:19:18;;;;;;;33.33;22.43;;;;;;;;;;5074346;28;20182;-67
2024/01/13 11:21:48;;;;;;;52.50;31.73;;;;;;;;;;5073925;28;20494;-67
2024/01/13 11:24:15;;;;;;;29.33;19.90;;;;;;;;;;5077573;28;20169;-65
2024/01/13 11:26:48;;;;;;;31.43;22.00;;;;;;;;;;5063996;28;20423;-67
2024/01/13 11:29:15;;;;;;;28.97;18.80;;;;;;;;;;5085728;28;20589;-67
2024/01/13 11:31:42;;;;;;;26.80;17.23;;;;;;;;;;5087732;28;20259;-67
2024/01/13 11:34:08;;;;;;;32.53;18.57;;;;;;;;;;5085892;28;20197;-67
2024/01/13 11:36:35;;;;;;;29.50;19.47;;;;;;;;;;5076405;28;20202;-67
2024/01/13 11:39:02;;;;;;;27.93;19.87;;;;;;;;;;5075359;28;20493;-67
2024/01/13 11:41:46;;;;;;;30.57;20.17;;;;;;;;;;5074391;28;20300;-69
2024/01/13 11:44:18;;;;;;;28.63;19.70;;;;;;;;;;5074611;28;20332;-69
2024/01/13 11:47:01;;;;;;;29.77;18.63;;;;;;;;;;5056194;28;20176;-67
2024/01/13 11:49:31;;;;;;;30.13;18.43;;;;;;;;;;5074100;28;20177;-67
2024/01/13 11:52:04;;;;;;;38.20;21.23;;;;;;;;;;5055465;28;20201;-67
2024/01/13 11:54:31;;;;;;;32.97;19.77;;;;;;;;;;5073269;28;20571;-67
2024/01/13 11:56:58;;;;;;;31.23;21.13;;;;;;;;;;5073977;28;20539;-68
2024/01/13 11:59:24;;;;;;;31.63;20.03;;;;;;;;;;5055496;28;20713;-66
2024/01/13 12:01:52;;;;;;;29.17;19.60;;;;;;;;;;5055584;28;21016;-68
2024/01/13 12:04:18;;;;;;;27.83;19.80;;;;;;;;;;5073513;28;20182;-67
2024/01/13 12:06:46;;;;;;;30.83;21.13;;;;;;;;;;5073502;28;20189;-67
2024/01/13 12:09:12;;;;;;;34.30;22.57;;;;;;;;;;5073781;28;20263;-67
2024/01/13 12:11:41;;;;;;;31.87;21.83;;;;;;;;;;5073578;28;20202;-68
2024/01/13 12:14:07;;;;;;;33.73;22.47;;;;;;;;;;5073316;28;20186;-66
2024/01/13 12:16:35;;;;;;;31.47;21.53;;;;;;;;;;5054912;28;21046;-65
2024/01/13 12:19:01;;;;;;;34.00;21.13;;;;;;;;;;5072672;28;20178;-66
2024/01/13 12:21:27;;;;;;;41.37;21.50;;;;;;;;;;5072391;28;20176;-66
2024/01/13 12:23:53;;;;;;;35.43;22.20;;;;;;;;;;5072659;28;20631;-66
2024/01/13 12:26:19;;;;;;;33.77;20.90;;;;;;;;;;5072647;28;20671;-66
2024/01/13 12:28:45;;;;;;;35.07;21.43;;;;;;;;;;5072817;28;20593;-66
2024/01/13 12:31:11;;;;;;;30.70;21.23;;;;;;;;;;5073015;28;20182;-67
2024/01/13 12:33:37;;;;;;;28.60;21.20;;;;;;;;;;5073327;28;20181;-66
2024/01/13 12:36:04;;;;;;;30.13;20.43;;;;;;;;;;5072616;28;20205;-66
2024/01/13 12:38:30;;;;;;;36.63;22.20;;;;;;;;;;5072849;28;20632;-66
2024/01/13 12:40:59;;;;;;;35.10;23.93;;;;;;;;;;5054613;28;20205;-66
2024/01/13 12:43:26;;;;;;;37.50;25.63;;;;;;;;;;5072207;28;20214;-66
2024/01/13 12:45:52;;;;;;;33.20;22.77;;;;;;;;;;5073208;28;20208;-66
2024/01/13 12:48:19;;;;;;;37.20;26.63;;;;;;;;;;5072483;28;20182;-66
2024/01/13 12:50:45;;;;;;;37.17;24.03;;;;;;;;;;5072329;28;20196;-65
2024/01/13 12:53:12;;;;;;;37.80;24.57;;;;;;;;;;5072547;28;20328;-66
2024/01/13 12:55:38;;;;;;;38.50;25.53;;;;;;;;;;5072706;28;20292;-67
2024/01/13 12:58:04;;;;;;;35.17;25.17;;;;;;;;;;5054388;28;20290;-67
2024/01/13 13:00:30;;;;;;;38.57;27.20;;;;;;;;;;5072207;28;20198;-67
2024/01/13 13:02:56;;;;;;;41.70;25.43;;;;;;;;;;5072411;28;20671;-67
2024/01/13 13:05:22;;;;;;;39.07;26.00;;;;;;;;;;5072588;28;20177;-67
2024/01/13 13:07:49;;;;;;;41.63;27.70;;;;;;;;;;5072024;28;20196;-66
2024/01/13 13:10:15;;;;;;;50.27;36.70;;;;;;;;;;5072312;28;20182;-67
2024/01/13 13:12:47;;;;;;;40.50;26.23;;;;;;;;;;5072037;28;20434;-67
2024/01/13 13:15:12;;;;;;;38.87;27.23;;;;;;;;;;5072699;28;20236;-64
2024/01/13 13:17:38;;;;;;;53.43;34.77;;;;;;;;;;5072401;28;20177;-66
2024/01/13 13:20:07;;;;;;;40.17;27.17;;;;;;;;;;5055088;28;20268;-66
2024/01/13 13:22:37;;;;;;;39.33;27.60;;;;;;;;;;5072368;28;20186;-66
2024/01/13 13:25:04;;;;;;;41.80;29.37;;;;;;;;;;5072601;28;20408;-66
2024/01/13 13:27:29;;;;;;;39.93;27.90;;;;;;;;;;5072395;28;20185;-66
2024/01/13 13:29:55;;;;;;;38.73;26.93;;;;;;;;;;5072635;28;20170;-67
2024/01/13 13:32:21;;;;;;;41.07;27.93;;;;;;;;;;5076406;28;20348;-67
2024/01/13 13:34:47;;;;;;;40.27;29.10;;;;;;;;;;5075856;28;20209;-67
2024/01/13 13:37:13;;;;;;;40.10;27.97;;;;;;;;;;5076136;28;20280;-67
2024/01/13 13:39:39;;;;;;;38.30;26.87;;;;;;;;;;5076615;28;20181;-67
2024/01/13 13:42:06;;;;;;;39.03;26.80;;;;;;;;;;5076269;28;20205;-67
2024/01/13 13:44:34;;;;;;;40.37;28.30;;;;;;;;;;5076067;28;20174;-67
2024/01/13 13:47:00;;;;;;;34.67;25.13;;;;;;;;;;5075790;28;20166;-67
2024/01/13 13:49:26;;;;;;;42.27;29.40;;;;;;;;;;5076604;28;20696;-66
2024/01/13 13:51:54;;;;;;;39.57;26.87;;;;;;;;;;5057614;28;20691;-67
2024/01/13 13:54:20;;;;;;;42.50;27.33;;;;;;;;;;5075643;28;20170;-67
2024/01/13 13:56:46;;;;;;;37.50;26.53;;;;;;;;;;5075521;28;20566;-67
2024/01/13 13:59:12;;;;;;;43.87;27.90;;;;;;;;;;5075822;28;20174;-67
2024/01/13 14:01:38;;;;;;;43.27;28.70;;;;;;;;;;5075592;28;20197;-67
2024/01/13 14:04:04;;;;;;;39.37;27.77;;;;;;;;;;5075999;28;20196;-72
2024/01/13 14:06:30;;;;;;;40.70;29.30;;;;;;;;;;5076054;28;20189;-66
2024/01/13 14:08:57;;;;;;;40.50;28.90;;;;;;;;;;5077874;28;20224;-66
2024/01/13 14:11:23;;;;;;;40.80;26.63;;;;;;;;;;5057530;28;20189;-65